Aurora Center, South Dakota
Current Conditions -  °F | °C
As of 7:53 AM on Friday 19 Dec 2014 (Local Time) from KMHE Reporting Station
Haze Haze  
Wind Chill: 19°   Ceiling: 600
Heat Index: 29°   Visibility: 5mi
Dew Point: 27°   Wind: 13mph
Humidity: 92%   Direction: 170°S
Pressure: 30.12"   Gusts: NA
Location:  43.5853°N, 98.5581°W
Report Text: KMHE 191353Z AUTO 17011KT 5SM BR OVC006 M02/M03 A3012 RMK AO2 SLP216 T10171028 $
Loading
Personal Weather Stations






























Interactive Weather Map New forecast layout! Learn more

10-Day Weather Forecast

Advertisements
Track Severe Weather on mobile